Terminal Aerodrome Forecast
Issued by NWS Quad Cities IA IL

Home | Current Version | Previous Version | Text Only | Print | Product List | Glossary On
Versions: 1 2 3 4 5 6 7 8 9 10 11 12 13 14 15 16 17 18 19 20 21 22 23
000
FTUS43 KDVN 251600 AAE
TAFDBQ
TAF AMD
KDBQ 251657Z 2517/2612 10007KT P6SM VCTS SCT025CB BKN100
      TEMPO 2517/2519 3SM TSRA BR SCT015 BKN035CB
     FM251900 22008KT P6SM SCT200 PROB30 2604/2608 4SM TSRA BKN050CB
     FM260800 33004KT 6SM BR VCTS BKN100CB=

USA.gov is the U.S. government's official web portal to all federal, state and local government web resources and services.